Time;durP1;ratioP1;P1;durP2;ratioP2;P2;SDS_P1;SDS_P2;PMS_P1;PMS_P2;Temp;Humidity;BMP_temperature;BMP_pressure;BME280_temperature;BME280_humidity;BME280_pressure;Samples;Min_cycle;Max_cycle;Signal;HPM_P1;HPM_P2
2024/04/16 00:02:08;;;;;;;8.02;1.73;;;8.20;99.90;;;;;;5460078;26;20457;-83
2024/04/16 00:04:33;;;;;;;5.50;1.70;;;8.30;99.90;;;;;;5460264;26;19994;-84
2024/04/16 00:06:59;;;;;;;8.75;2.08;;;8.30;99.90;;;;;;5459982;26;20062;-83
2024/04/16 00:09:25;;;;;;;5.95;1.42;;;8.30;99.90;;;;;;5429934;26;20005;-84
2024/04/16 00:11:50;;;;;;;8.90;1.95;;;8.30;99.90;;;;;;5430190;26;20371;-83
2024/04/16 00:14:16;;;;;;;8.00;2.10;;;8.30;99.90;;;;;;5430155;26;19994;-84
2024/04/16 00:16:42;;;;;;;7.47;1.88;;;8.30;99.90;;;;;;5429713;26;20326;-85
2024/04/16 00:19:07;;;;;;;5.72;2.00;;;8.40;99.90;;;;;;5400820;26;20074;-85
2024/04/16 00:21:33;;;;;;;7.40;2.28;;;8.30;99.90;;;;;;5460344;26;20031;-83
2024/04/16 00:23:59;;;;;;;6.70;1.70;;;8.40;99.90;;;;;;5459871;26;20067;-86
2024/04/16 00:26:24;;;;;;;6.85;1.58;;;8.40;99.90;;;;;;5460182;26;20063;-84
2024/04/16 00:28:50;;;;;;;8.75;1.90;;;8.40;99.90;;;;;;5430144;26;19994;-84
2024/04/16 00:31:19;;;;;;;8.63;1.90;;;8.40;99.90;;;;;;5459937;26;20032;-83
2024/04/16 00:33:44;;;;;;;5.05;1.55;;;8.50;99.90;;;;;;5430333;26;19990;-83
2024/04/16 00:36:10;;;;;;;8.82;1.90;;;8.50;99.90;;;;;;5429768;26;20009;-84
2024/04/16 00:38:35;;;;;;;9.48;2.30;;;8.50;99.80;;;;;;5460612;26;20438;-84
2024/04/16 00:41:01;;;;;;;7.40;2.00;;;8.50;99.80;;;;;;5460172;26;20013;-85
2024/04/16 00:43:27;;;;;;;5.32;1.60;;;8.50;99.80;;;;;;5460005;26;20005;-85
2024/04/16 00:45:54;;;;;;;3.80;1.40;;;8.50;99.80;;;;;;5462349;26;20342;-83
2024/04/16 00:48:25;;;;;;;6.85;1.90;;;8.60;99.80;;;;;;5484366;26;19986;-84
2024/04/16 00:50:51;;;;;;;6.38;2.00;;;8.60;99.70;;;;;;5515064;26;19996;-85
2024/04/16 00:53:18;;;;;;;6.57;2.05;;;8.60;99.70;;;;;;5514814;26;19994;-85
2024/04/16 00:55:45;;;;;;;6.95;1.55;;;8.70;99.60;;;;;;5442425;26;20005;-84
2024/04/16 00:58:12;;;;;;;5.97;1.60;;;8.70;99.60;;;;;;5430525;26;20001;-83
2024/04/16 01:00:38;;;;;;;4.10;1.38;;;8.70;99.60;;;;;;5460175;26;20005;-84
2024/04/16 01:03:06;;;;;;;6.10;1.88;;;8.70;99.60;;;;;;5491293;26;20006;-85
2024/04/16 01:05:32;;;;;;;7.43;1.85;;;8.70;99.60;;;;;;5430269;26;20058;-84
2024/04/16 01:07:58;;;;;;;4.63;1.33;;;8.70;99.60;;;;;;5429933;26;19994;-84
2024/04/16 01:10:24;;;;;;;6.30;1.63;;;8.80;99.60;;;;;;5491775;26;19994;-84
2024/04/16 01:12:49;;;;;;;5.53;1.95;;;8.80;99.60;;;;;;5399617;26;20040;-84
2024/04/16 01:15:15;;;;;;;5.55;1.10;;;8.70;99.60;;;;;;5400667;26;19993;-84
2024/04/16 01:17:41;;;;;;;4.80;1.30;;;8.70;99.70;;;;;;5429317;26;19994;-83
2024/04/16 01:20:08;;;;;;;4.28;1.45;;;8.70;99.70;;;;;;5459783;26;19997;-84
2024/04/16 01:22:33;;;;;;;3.30;1.20;;;8.60;99.70;;;;;;5429642;26;20039;-84
2024/04/16 01:24:59;;;;;;;5.65;1.23;;;8.60;99.80;;;;;;5429605;26;20006;-85
2024/04/16 01:27:25;;;;;;;3.17;1.20;;;8.60;99.80;;;;;;5429087;26;19994;-85
2024/04/16 01:29:50;;;;;;;4.57;1.05;;;8.60;99.90;;;;;;5430204;26;20005;-85
2024/04/16 01:32:16;;;;;;;3.28;1.00;;;8.50;99.90;;;;;;5429019;26;20004;-85
2024/04/16 01:34:42;;;;;;;4.60;1.05;;;8.50;99.90;;;;;;5428563;26;20413;-84
2024/04/16 01:37:08;;;;;;;3.55;1.00;;;8.60;99.90;;;;;;5429639;26;20062;-83
2024/04/16 01:39:33;;;;;;;3.65;1.13;;;8.60;99.90;;;;;;5459590;26;20295;-83
2024/04/16 01:42:00;;;;;;;3.58;1.25;;;8.60;99.90;;;;;;5458931;26;19994;-84
2024/04/16 01:44:25;;;;;;;4.35;1.10;;;8.60;99.90;;;;;;5490920;26;19998;-84
2024/04/16 01:46:51;;;;;;;3.42;0.93;;;8.60;99.90;;;;;;5428947;26;19994;-85
2024/04/16 01:49:19;;;;;;;5.40;1.63;;;8.60;99.90;;;;;;5458637;26;20049;-85
2024/04/16 01:51:46;;;;;;;3.42;1.17;;;8.60;99.90;;;;;;5429367;26;20403;-84
2024/04/16 01:54:11;;;;;;;4.90;1.33;;;8.70;99.90;;;;;;5458885;26;20005;-84
2024/04/16 01:56:37;;;;;;;5.18;1.38;;;8.60;99.90;;;;;;5428768;26;20006;-86
2024/04/16 01:59:03;;;;;;;4.43;1.42;;;8.70;99.90;;;;;;5459233;26;20356;-85
2024/04/16 02:01:28;;;;;;;6.50;1.30;;;8.60;99.90;;;;;;5428590;26;20479;-85
2024/04/16 02:03:54;;;;;;;4.25;1.45;;;8.60;99.90;;;;;;5491270;26;19997;-84
2024/04/16 02:06:20;;;;;;;3.78;1.30;;;8.60;99.90;;;;;;5458737;26;19994;-84
2024/04/16 02:08:45;;;;;;;5.38;1.17;;;8.60;99.90;;;;;;5459263;26;19990;-85
2024/04/16 02:11:11;;;;;;;6.10;1.13;;;8.50;99.90;;;;;;5460134;26;20458;-84
2024/04/16 02:13:36;;;;;;;3.55;0.90;;;8.50;99.90;;;;;;5471983;26;19998;-84
2024/04/16 02:16:02;;;;;;;3.30;0.90;;;8.50;99.90;;;;;;5512853;26;19994;-84
2024/04/16 02:18:28;;;;;;;2.60;0.93;;;8.50;99.90;;;;;;5482707;26;19978;-84
2024/04/16 02:20:54;;;;;;;3.47;1.20;;;8.50;99.90;;;;;;5482443;26;19994;-84
2024/04/16 02:23:19;;;;;;;3.60;1.10;;;8.40;99.90;;;;;;5441822;26;19994;-84
2024/04/16 02:25:49;;;;;;;3.13;0.95;;;8.40;99.90;;;;;;5490740;26;19994;-84
2024/04/16 02:28:15;;;;;;;3.80;1.30;;;8.40;99.90;;;;;;5458164;26;20457;-84
2024/04/16 02:30:41;;;;;;;3.17;1.02;;;8.40;99.90;;;;;;5398924;26;19994;-83
2024/04/16 02:33:17;;;;;;;3.00;1.00;;;8.30;99.90;;;;;;5428916;26;20000;-84
2024/04/16 02:35:43;;;;;;;4.78;1.05;;;8.40;99.90;;;;;;5431003;26;19994;-84
2024/04/16 02:38:09;;;;;;;3.85;1.50;;;8.40;99.90;;;;;;5399054;26;20012;-84
2024/04/16 02:40:35;;;;;;;3.03;0.90;;;8.40;99.90;;;;;;5457722;26;20005;-84
2024/04/16 02:43:01;;;;;;;3.58;1.05;;;8.30;99.90;;;;;;5457889;26;19990;-84
2024/04/16 02:45:27;;;;;;;2.33;0.90;;;8.30;99.90;;;;;;5397834;26;19990;-87
2024/04/16 02:47:53;;;;;;;2.38;0.47;;;8.20;99.90;;;;;;5428731;26;20004;-84
2024/04/16 02:50:19;;;;;;;1.45;0.30;;;8.20;99.90;;;;;;5427389;26;19994;-84
2024/04/16 02:52:44;;;;;;;0.20;0.10;;;8.10;99.90;;;;;;5428660;26;20005;-83
2024/04/16 02:55:19;;;;;;;0.80;0.10;;;8.00;99.90;;;;;;5457361;26;19990;-83
2024/04/16 02:57:45;;;;;;;0.70;0.30;;;8.00;99.90;;;;;;5428995;26;20035;-83
2024/04/16 03:00:11;;;;;;;1.13;0.25;;;7.90;99.90;;;;;;5427705;26;20006;-83
2024/04/16 03:02:38;;;;;;;1.25;0.30;;;7.90;99.90;;;;;;5457023;26;20001;-82
2024/04/16 03:05:04;;;;;;;0.70;0.30;;;7.80;99.90;;;;;;5457732;26;20450;-83
2024/04/16 03:07:30;;;;;;;1.25;0.43;;;7.80;99.90;;;;;;5456230;26;19994;-83
2024/04/16 03:09:56;;;;;;;0.93;0.20;;;7.90;99.90;;;;;;5489585;26;20006;-85
2024/04/16 03:12:22;;;;;;;2.65;0.32;;;7.90;99.90;;;;;;5457295;26;19987;-83
2024/04/16 03:14:54;;;;;;;0.50;0.17;;;7.80;99.90;;;;;;5457841;26;19997;-83
2024/04/16 03:17:20;;;;;;;1.35;0.20;;;7.80;99.90;;;;;;5427127;26;20422;-83
2024/04/16 03:19:46;;;;;;;0.30;0.20;;;7.80;99.90;;;;;;5427977;26;20438;-83
2024/04/16 03:22:12;;;;;;;0.50;0.20;;;7.80;99.90;;;;;;5456955;26;19987;-83
2024/04/16 03:24:37;;;;;;;1.17;0.10;;;7.70;99.90;;;;;;5457828;26;20014;-83
2024/04/16 03:27:03;;;;;;;0.93;0.38;;;7.70;99.90;;;;;;5457052;26;19990;-83
2024/04/16 03:29:29;;;;;;;1.50;0.45;;;7.70;99.90;;;;;;5427303;26;20005;-83
2024/04/16 03:31:55;;;;;;;0.77;0.20;;;7.70;99.90;;;;;;5426122;26;19998;-83
2024/04/16 03:34:20;;;;;;;0.43;0.10;;;7.60;99.90;;;;;;5427245;26;20018;-83
2024/04/16 03:36:46;;;;;;;1.38;0.20;;;7.60;99.90;;;;;;5457683;26;20002;-83
2024/04/16 03:39:11;;;;;;;0.43;0.28;;;7.60;99.90;;;;;;5398839;26;20325;-83
2024/04/16 03:41:37;;;;;;;1.08;0.30;;;7.60;99.90;;;;;;5446405;26;20002;-82
2024/04/16 03:44:03;;;;;;;1.05;0.20;;;7.60;99.90;;;;;;5481694;26;20006;-82
2024/04/16 03:46:29;;;;;;;0.50;0.30;;;7.60;99.90;;;;;;5451174;26;19994;-83
2024/04/16 03:48:54;;;;;;;0.25;0.20;;;7.60;99.90;;;;;;5417338;26;19998;-82
2024/04/16 03:51:20;;;;;;;2.55;0.40;;;7.60;99.90;;;;;;5430621;26;19990;-83
2024/04/16 03:53:46;;;;;;;0.65;0.30;;;7.60;99.90;;;;;;5459439;26;19994;-82
2024/04/16 03:56:12;;;;;;;1.17;0.25;;;7.60;99.90;;;;;;5398098;26;19994;-83
2024/04/16 03:58:54;;;;;;;1.35;0.30;;;7.70;99.90;;;;;;5457533;26;20315;-83
2024/04/16 04:01:20;;;;;;;0.73;0.40;;;7.70;99.90;;;;;;5431279;26;20002;-83
2024/04/16 04:03:48;;;;;;;1.02;0.35;;;7.80;99.90;;;;;;5427187;26;19994;-84
2024/04/16 04:06:13;;;;;;;1.20;0.38;;;7.80;99.90;;;;;;5456593;26;20310;-84
2024/04/16 04:08:39;;;;;;;1.50;0.40;;;7.80;99.90;;;;;;5488770;26;19994;-82
2024/04/16 04:11:05;;;;;;;2.00;0.40;;;7.90;99.90;;;;;;5426905;26;19994;-83
2024/04/16 04:13:31;;;;;;;2.05;0.60;;;7.90;99.90;;;;;;5397550;26;19998;-82
2024/04/16 04:15:57;;;;;;;0.80;0.30;;;7.80;99.90;;;;;;5426524;26;20001;-83
2024/04/16 04:18:26;;;;;;;1.35;0.40;;;7.80;99.90;;;;;;5426780;26;20414;-81
2024/04/16 04:20:51;;;;;;;2.50;1.10;;;7.90;99.90;;;;;;5430798;26;19994;-82
2024/04/16 04:23:17;;;;;;;1.67;0.47;;;7.90;99.90;;;;;;5430270;26;20017;-83
2024/04/16 04:25:43;;;;;;;1.63;0.43;;;7.80;99.90;;;;;;5430481;26;20121;-85
2024/04/16 04:28:09;;;;;;;1.40;0.55;;;7.90;99.90;;;;;;5460524;26;20004;-83
2024/04/16 04:30:34;;;;;;;1.52;0.65;;;7.80;99.90;;;;;;5460763;26;19991;-83
2024/04/16 04:33:03;;;;;;;3.17;0.80;;;7.80;99.90;;;;;;5400791;26;20427;-83
2024/04/16 04:35:31;;;;;;;2.40;0.57;;;7.80;99.90;;;;;;5459888;26;20001;-82
2024/04/16 04:37:57;;;;;;;2.17;0.68;;;7.80;99.90;;;;;;5461003;26;20002;-82
2024/04/16 04:40:23;;;;;;;2.78;0.80;;;7.80;99.90;;;;;;5460669;26;20403;-81
2024/04/16 04:42:50;;;;;;;1.17;0.45;;;7.80;99.90;;;;;;5460327;26;20009;-83
2024/04/16 04:45:15;;;;;;;2.53;0.70;;;7.80;99.90;;;;;;5459864;26;19998;-82
2024/04/16 04:47:41;;;;;;;1.20;0.80;;;7.80;99.90;;;;;;5399342;26;20004;-83
2024/04/16 04:50:07;;;;;;;1.58;0.57;;;7.80;99.90;;;;;;5459743;26;20426;-83
2024/04/16 04:52:32;;;;;;;2.10;0.73;;;7.80;99.90;;;;;;5429791;26;20025;-83
2024/04/16 04:55:01;;;;;;;1.95;0.70;;;7.80;99.90;;;;;;5492265;26;20442;-84
2024/04/16 04:57:30;;;;;;;3.95;1.25;;;7.90;99.90;;;;;;5430819;26;20363;-83
2024/04/16 04:59:56;;;;;;;3.92;1.40;;;7.80;99.90;;;;;;5400945;26;20328;-83
2024/04/16 05:02:22;;;;;;;3.85;1.00;;;7.80;99.90;;;;;;5430936;26;20047;-84
2024/04/16 05:04:47;;;;;;;6.20;1.38;;;7.80;99.90;;;;;;5432071;26;19994;-84
2024/04/16 05:07:13;;;;;;;4.40;1.30;;;7.80;99.90;;;;;;5446647;26;19986;-84
2024/04/16 05:09:39;;;;;;;4.50;1.60;;;7.80;99.90;;;;;;5484307;26;19993;-82
2024/04/16 05:12:04;;;;;;;5.35;1.27;;;7.90;99.90;;;;;;5453966;26;20019;-83
2024/04/16 05:14:32;;;;;;;4.78;1.40;;;7.80;99.90;;;;;;5423949;26;20078;-84
2024/04/16 05:16:58;;;;;;;3.30;1.10;;;7.80;99.90;;;;;;5453761;26;20002;-82
2024/04/16 05:19:24;;;;;;;4.53;1.05;;;7.70;99.90;;;;;;5479521;26;19994;-84
2024/04/16 05:21:49;;;;;;;1.88;0.90;;;7.70;99.90;;;;;;5459170;26;20314;-82
2024/04/16 05:24:15;;;;;;;2.65;1.00;;;7.70;99.90;;;;;;5429406;26;20010;-81
2024/04/16 05:26:43;;;;;;;4.25;0.80;;;7.70;99.90;;;;;;5399551;26;20004;-83
2024/04/16 05:29:09;;;;;;;1.38;0.60;;;7.70;99.90;;;;;;5491334;26;19994;-83
2024/04/16 05:31:35;;;;;;;2.58;0.63;;;7.70;99.90;;;;;;5427809;26;20013;-81
2024/04/16 05:34:03;;;;;;;1.50;0.40;;;7.60;99.90;;;;;;5429362;26;20002;-82
2024/04/16 05:36:28;;;;;;;1.88;0.40;;;7.50;99.90;;;;;;5490546;26;19990;-82
2024/04/16 05:38:54;;;;;;;0.75;0.50;;;7.50;99.90;;;;;;5458320;26;20419;-82
2024/04/16 05:41:20;;;;;;;1.90;0.43;;;7.50;99.90;;;;;;5458923;26;20376;-82
2024/04/16 05:43:46;;;;;;;0.90;0.45;;;7.50;99.90;;;;;;5458890;26;20004;-82
2024/04/16 05:46:12;;;;;;;1.40;0.40;;;7.60;99.90;;;;;;5422865;26;20001;-83
2024/04/16 05:48:38;;;;;;;0.70;0.30;;;7.60;99.90;;;;;;5422901;26;19995;-82
2024/04/16 05:51:04;;;;;;;0.55;0.20;;;7.60;99.90;;;;;;5423181;26;20006;-82
2024/04/16 05:53:29;;;;;;;0.73;0.30;;;7.60;99.90;;;;;;5453020;26;19998;-82
2024/04/16 05:55:55;;;;;;;0.98;0.40;;;7.60;99.90;;;;;;5423418;26;19994;-82
2024/04/16 05:58:22;;;;;;;0.82;0.68;;;7.60;99.90;;;;;;5423476;26;19995;-83
2024/04/16 06:00:48;;;;;;;0.65;0.38;;;7.60;99.90;;;;;;5394046;26;20027;-82
2024/04/16 06:03:14;;;;;;;1.60;0.30;;;7.60;99.90;;;;;;5453168;26;19999;-83
2024/04/16 06:05:39;;;;;;;1.63;0.40;;;7.60;99.90;;;;;;5422692;26;20338;-83
2024/04/16 06:08:05;;;;;;;1.50;0.63;;;7.60;99.90;;;;;;5422708;26;20026;-82
2024/04/16 06:10:31;;;;;;;1.70;0.40;;;7.70;99.90;;;;;;5452695;26;20437;-82
2024/04/16 06:12:57;;;;;;;2.10;0.70;;;7.70;99.90;;;;;;5422107;26;19995;-81
2024/04/16 06:15:22;;;;;;;2.05;0.80;;;7.80;99.90;;;;;;5454479;26;20075;-82
2024/04/16 06:17:48;;;;;;;2.55;0.80;;;7.80;99.90;;;;;;5422800;26;19995;-82
2024/04/16 06:20:14;;;;;;;1.65;0.60;;;7.80;99.90;;;;;;5422979;26;20002;-82
2024/04/16 06:22:40;;;;;;;2.78;0.80;;;7.80;99.90;;;;;;5452894;26;20005;-84
2024/04/16 06:25:07;;;;;;;3.90;1.05;;;7.90;99.90;;;;;;5455388;26;19999;-82
2024/04/16 06:27:33;;;;;;;4.80;1.02;;;8.00;99.90;;;;;;5453844;26;20449;-83
2024/04/16 06:30:01;;;;;;;4.85;1.23;;;8.10;99.90;;;;;;5467401;26;19991;-83
2024/04/16 06:32:27;;;;;;;2.92;0.95;;;8.10;99.90;;;;;;5474872;26;19995;-82
2024/04/16 06:34:53;;;;;;;4.30;1.48;;;8.20;99.90;;;;;;5476701;26;20001;-82
2024/04/16 06:37:19;;;;;;;4.00;1.30;;;8.20;99.90;;;;;;5475082;26;19983;-82
2024/04/16 06:39:45;;;;;;;5.20;1.73;;;8.30;99.90;;;;;;5441981;26;20006;-83
2024/04/16 06:42:11;;;;;;;5.20;1.77;;;8.30;99.90;;;;;;5424977;26;19987;-82
2024/04/16 06:44:37;;;;;;;6.30;1.50;;;8.40;99.90;;;;;;5422838;26;20459;-82
2024/04/16 06:47:02;;;;;;;5.53;1.77;;;8.50;99.90;;;;;;5451478;26;20022;-82
2024/04/16 06:49:29;;;;;;;4.18;1.10;;;8.50;99.90;;;;;;5422142;26;20339;-83
2024/04/16 06:51:55;;;;;;;6.55;1.45;;;8.50;99.90;;;;;;5452243;26;20006;-83
2024/04/16 06:54:21;;;;;;;3.03;1.10;;;8.60;99.90;;;;;;5422570;26;20326;-83
2024/04/16 06:56:46;;;;;;;4.60;1.90;;;8.60;99.90;;;;;;5451740;26;20067;-83
2024/04/16 06:59:14;;;;;;;5.53;1.35;;;8.70;99.90;;;;;;5422682;26;20064;-82
2024/04/16 07:01:40;;;;;;;4.38;1.50;;;8.80;99.90;;;;;;5423222;26;19995;-83
2024/04/16 07:04:06;;;;;;;4.47;1.45;;;8.80;99.90;;;;;;5451713;26;19995;-82
2024/04/16 07:06:31;;;;;;;4.55;1.30;;;8.90;99.90;;;;;;5452217;26;20429;-82
2024/04/16 07:08:57;;;;;;;3.90;1.23;;;9.00;99.90;;;;;;5452045;26;20477;-83
2024/04/16 07:11:23;;;;;;;3.55;1.10;;;9.10;99.90;;;;;;5451342;26;20001;-82
2024/04/16 07:13:48;;;;;;;5.97;1.55;;;9.10;99.90;;;;;;5452094;26;20415;-83
2024/04/16 07:16:14;;;;;;;4.82;1.50;;;9.10;99.90;;;;;;5421819;26;20419;-81
2024/04/16 07:18:39;;;;;;;4.65;1.40;;;9.20;99.90;;;;;;5421435;26;20067;-82
2024/04/16 07:21:06;;;;;;;5.68;1.50;;;9.30;99.90;;;;;;5421914;26;19995;-82
2024/04/16 07:23:31;;;;;;;5.25;1.90;;;9.30;99.90;;;;;;5421744;26;19995;-82
2024/04/16 07:25:57;;;;;;;5.63;1.55;;;9.40;99.90;;;;;;5421299;26;20362;-82
2024/04/16 07:28:22;;;;;;;6.90;1.60;;;9.50;99.90;;;;;;5421992;26;20005;-82
2024/04/16 07:30:48;;;;;;;6.82;1.88;;;9.60;99.90;;;;;;5452925;26;19991;-84
2024/04/16 07:33:14;;;;;;;5.70;1.80;;;9.70;99.90;;;;;;5392022;26;20343;-83
2024/04/16 07:35:44;;;;;;;5.20;1.90;;;9.70;99.90;;;;;;5392186;26;20001;-83
2024/04/16 07:38:11;;;;;;;4.27;1.70;;;9.80;99.90;;;;;;5423145;26;20003;-83
2024/04/16 07:40:37;;;;;;;5.80;1.77;;;9.80;99.90;;;;;;5421829;26;20232;-82
2024/04/16 07:43:03;;;;;;;10.07;1.88;;;9.80;99.90;;;;;;5421541;26;19995;-84
2024/04/16 07:45:28;;;;;;;5.00;1.80;;;9.80;99.90;;;;;;5451805;26;19995;-82
2024/04/16 07:47:54;;;;;;;5.68;1.77;;;9.80;99.90;;;;;;5423124;26;20126;-82
2024/04/16 07:50:22;;;;;;;4.03;1.67;;;9.80;99.90;;;;;;5452474;26;20002;-84
2024/04/16 07:52:48;;;;;;;5.38;1.75;;;9.70;99.90;;;;;;5452251;26;20009;-84
2024/04/16 07:55:14;;;;;;;4.82;1.85;;;9.70;99.90;;;;;;5456311;26;20423;-83
2024/04/16 07:57:39;;;;;;;5.78;1.50;;;9.70;99.90;;;;;;5427212;26;20002;-83
2024/04/16 08:00:06;;;;;;;7.07;1.65;;;9.70;99.90;;;;;;5465853;26;20006;-82
2024/04/16 08:02:31;;;;;;;6.00;1.60;;;9.60;99.90;;;;;;5418761;26;19997;-83
2024/04/16 08:04:57;;;;;;;3.20;1.13;;;9.60;99.90;;;;;;5449423;26;19979;-82
2024/04/16 08:07:23;;;;;;;4.68;1.58;;;9.50;99.90;;;;;;5448824;26;20007;-83
2024/04/16 08:09:48;;;;;;;6.35;1.50;;;9.50;99.90;;;;;;5448337;26;19994;-84
2024/04/16 08:12:14;;;;;;;7.47;1.63;;;9.50;99.90;;;;;;5475712;26;19994;-83
2024/04/16 08:14:41;;;;;;;5.68;2.05;;;9.60;99.90;;;;;;5455617;26;19990;-83
2024/04/16 08:17:06;;;;;;;8.82;2.25;;;9.60;99.90;;;;;;5424446;26;19991;-83
2024/04/16 08:19:32;;;;;;;6.78;1.83;;;9.70;99.90;;;;;;5425237;26;19995;-83
2024/04/16 08:21:58;;;;;;;7.00;2.33;;;9.70;99.90;;;;;;5424163;26;20075;-83
2024/04/16 08:24:23;;;;;;;6.20;1.90;;;9.80;99.90;;;;;;5454346;26;19991;-82
2024/04/16 08:26:49;;;;;;;8.13;1.67;;;9.90;99.90;;;;;;5424651;26;20415;-83
2024/04/16 08:29:15;;;;;;;5.07;1.60;;;10.00;99.90;;;;;;5394082;26;19995;-84
2024/04/16 08:31:40;;;;;;;9.15;2.13;;;10.10;99.90;;;;;;5455571;26;20014;-82
2024/04/16 08:34:06;;;;;;;6.55;1.60;;;10.20;99.90;;;;;;5423532;26;20067;-82
2024/04/16 08:36:32;;;;;;;7.82;1.95;;;10.30;99.90;;;;;;5394255;26;20439;-81
2024/04/16 08:38:57;;;;;;;8.35;1.83;;;10.40;99.90;;;;;;5454461;26;19994;-81
2024/04/16 08:41:23;;;;;;;4.75;1.60;;;10.50;99.90;;;;;;5454150;26;20315;-82
2024/04/16 08:43:50;;;;;;;5.38;1.58;;;10.60;99.90;;;;;;5424456;26;19995;-82
2024/04/16 08:46:16;;;;;;;6.78;1.70;;;10.70;99.90;;;;;;5423308;26;20304;-83
2024/04/16 08:48:44;;;;;;;3.40;1.10;;;10.70;99.90;;;;;;5454329;26;20437;-83
2024/04/16 08:51:13;;;;;;;5.57;1.50;;;10.70;99.90;;;;;;5424342;26;19995;-82
2024/04/16 08:53:42;;;;;;;4.38;1.13;;;10.70;99.90;;;;;;5454494;26;20003;-82
2024/04/16 08:56:09;;;;;;;5.32;1.48;;;10.80;99.90;;;;;;5453811;26;19991;-83
2024/04/16 08:58:35;;;;;;;3.25;1.10;;;10.70;99.90;;;;;;5453568;26;19999;-82
2024/04/16 09:01:05;;;;;;;3.45;1.40;;;10.70;99.90;;;;;;5453791;26;20067;-84
2024/04/16 09:03:32;;;;;;;3.95;1.35;;;10.80;99.90;;;;;;5454447;26;20175;-84
2024/04/16 09:05:59;;;;;;;3.15;1.10;;;10.80;99.90;;;;;;5452200;26;19998;-81
2024/04/16 09:08:26;;;;;;;4.28;0.95;;;10.80;99.90;;;;;;5453818;26;19995;-82
2024/04/16 09:10:52;;;;;;;2.85;1.15;;;10.80;99.90;;;;;;5424003;26;19995;-83
2024/04/16 09:13:17;;;;;;;5.75;1.00;;;10.80;99.90;;;;;;5454145;26;20067;-83
2024/04/16 09:15:43;;;;;;;4.63;1.10;;;10.80;99.90;;;;;;5453918;26;20006;-83
2024/04/16 09:18:09;;;;;;;5.72;0.88;;;10.90;99.90;;;;;;5423866;26;20063;-82
2024/04/16 09:20:34;;;;;;;4.03;0.90;;;10.90;99.90;;;;;;5424032;26;20067;-83
2024/04/16 09:23:01;;;;;;;3.88;0.95;;;11.00;99.90;;;;;;5423685;26;20519;-82
2024/04/16 09:25:28;;;;;;;2.72;1.00;;;11.00;99.90;;;;;;5454982;26;19995;-82
2024/04/16 09:27:55;;;;;;;2.85;0.70;;;11.10;99.90;;;;;;5425238;26;20002;-83
2024/04/16 09:30:22;;;;;;;4.18;1.17;;;11.10;99.90;;;;;;5461232;26;19995;-83
2024/04/16 09:33:03;;;;;;;2.45;0.80;;;11.20;99.90;;;;;;5447768;26;19990;-84
2024/04/16 09:35:30;;;;;;;3.85;0.85;;;11.30;99.90;;;;;;5478029;26;19979;-82
2024/04/16 09:38:07;;;;;;;6.15;0.80;;;11.30;99.90;;;;;;5477304;26;19999;-84
2024/04/16 09:40:35;;;;;;;5.10;1.10;;;11.30;99.90;;;;;;5463151;26;20026;-83
2024/04/16 09:43:02;;;;;;;3.40;1.08;;;11.20;99.90;;;;;;5424391;26;19991;-85
2024/04/16 09:45:32;;;;;;;1.85;0.40;;;11.30;99.90;;;;;;5453649;26;20013;-83
2024/04/16 09:48:01;;;;;;;1.48;0.82;;;11.30;99.90;;;;;;5491228;26;20375;-83
2024/04/16 09:50:27;;;;;;;2.15;0.73;;;11.40;99.90;;;;;;5458518;26;19995;-83
2024/04/16 09:52:54;;;;;;;3.22;0.90;;;11.50;99.90;;;;;;5491376;26;20075;-84
2024/04/16 09:55:24;;;;;;;2.05;0.70;;;11.60;99.90;;;;;;5459219;26;19997;-83
2024/04/16 09:58:00;;;;;;;5.85;0.90;;;11.70;99.90;;;;;;5490808;26;20005;-84
2024/04/16 10:00:27;;;;;;;3.80;0.90;;;11.70;99.90;;;;;;5458719;26;20066;-83
2024/04/16 10:02:55;;;;;;;2.95;0.70;;;11.70;99.90;;;;;;5458883;26;20002;-84
2024/04/16 10:05:21;;;;;;;1.98;0.63;;;11.70;99.90;;;;;;5490991;26;20433;-83
2024/04/16 10:07:48;;;;;;;4.13;0.50;;;11.60;99.90;;;;;;5458333;26;20001;-84
2024/04/16 10:10:15;;;;;;;3.20;0.55;;;11.60;99.90;;;;;;5459073;26;20005;-84
2024/04/16 10:12:42;;;;;;;1.70;0.55;;;11.60;99.90;;;;;;5428377;26;20002;-84
2024/04/16 10:15:08;;;;;;;1.58;0.40;;;11.60;99.90;;;;;;5490967;26;20313;-83
2024/04/16 10:17:56;;;;;;;1.70;0.50;;;11.50;99.90;;;;;;5458457;26;20089;-84
2024/04/16 10:20:23;;;;;;;3.88;0.77;;;11.50;99.90;;;;;;5490730;26;20122;-84
2024/04/16 10:23:00;;;;;;;2.95;0.50;;;11.60;99.90;;;;;;5429469;26;20018;-83
2024/04/16 10:25:33;;;;;;;4.80;0.68;;;11.60;99.90;;;;;;5458884;26;20017;-84
2024/04/16 10:28:03;;;;;;;3.10;0.73;;;11.60;99.90;;;;;;5459188;26;20470;-84
2024/04/16 10:30:35;;;;;;;2.08;0.60;;;11.60;99.90;;;;;;5428745;26;20482;-84
2024/04/16 10:33:04;;;;;;;0.82;0.30;;;11.60;99.90;;;;;;5490951;26;19994;-84
2024/04/16 10:35:32;;;;;;;2.30;0.50;;;11.60;99.90;;;;;;5459235;26;20006;-84
2024/04/16 10:37:58;;;;;;;1.42;0.50;;;11.60;99.90;;;;;;5459041;26;19994;-86
2024/04/16 10:40:31;;;;;;;1.25;0.30;;;11.70;99.90;;;;;;5458155;26;19998;-84
2024/04/16 10:42:57;;;;;;;4.00;0.73;;;11.60;99.90;;;;;;5490712;26;19994;-83
2024/04/16 10:45:23;;;;;;;3.13;0.40;;;11.60;99.90;;;;;;5490332;26;20078;-83
2024/04/16 10:47:51;;;;;;;0.60;0.47;;;11.50;99.90;;;;;;5422796;26;20010;-85
2024/04/16 10:50:17;;;;;;;2.88;0.50;;;11.50;99.90;;;;;;5393431;26;20399;-83
2024/04/16 10:52:43;;;;;;;2.75;0.57;;;11.40;99.90;;;;;;5422315;26;19991;-83
2024/04/16 10:55:08;;;;;;;2.15;0.40;;;11.40;99.90;;;;;;5452378;26;20045;-84
2024/04/16 10:57:34;;;;;;;0.90;0.20;;;11.50;99.90;;;;;;5453056;26;19998;-84
2024/04/16 11:00:00;;;;;;;1.90;0.40;;;11.60;99.90;;;;;;5424222;26;20009;-83
2024/04/16 11:02:26;;;;;;;2.28;0.65;;;11.70;99.90;;;;;;5432767;26;19991;-84
2024/04/16 11:04:52;;;;;;;2.83;0.43;;;11.70;99.90;;;;;;5476646;26;19983;-83
2024/04/16 11:07:18;;;;;;;2.35;0.50;;;11.80;99.90;;;;;;5446406;26;20039;-82
2024/04/16 11:09:43;;;;;;;1.05;0.30;;;11.80;99.90;;;;;;5476963;26;20040;-83
2024/04/16 11:12:11;;;;;;;1.15;0.35;;;11.90;99.90;;;;;;5466453;26;20027;-84
2024/04/16 11:14:37;;;;;;;1.75;0.35;;;12.00;99.90;;;;;;5423258;26;19994;-83
2024/04/16 11:17:05;;;;;;;1.65;0.70;;;12.10;99.90;;;;;;5451361;26;19994;-83
2024/04/16 11:19:31;;;;;;;2.88;0.40;;;12.20;99.90;;;;;;5451756;26;19995;-84
2024/04/16 11:21:58;;;;;;;1.30;0.40;;;12.30;99.90;;;;;;5421990;26;20370;-83
2024/04/16 11:24:24;;;;;;;1.55;0.52;;;12.40;99.90;;;;;;5453138;26;19995;-83
2024/04/16 11:26:50;;;;;;;1.60;0.40;;;12.50;99.90;;;;;;5453386;26;20007;-84
2024/04/16 11:29:19;;;;;;;0.85;0.38;;;12.50;99.90;;;;;;5423665;26;20323;-83
2024/04/16 11:31:45;;;;;;;0.40;0.20;;;12.50;99.90;;;;;;5454655;26;20005;-83
2024/04/16 11:34:12;;;;;;;1.73;0.25;;;12.50;99.90;;;;;;5425259;26;19995;-84
2024/04/16 11:36:46;;;;;;;0.68;0.30;;;12.50;99.90;;;;;;5456465;26;20023;-85
2024/04/16 11:39:12;;;;;;;1.23;0.50;;;12.50;99.90;;;;;;5455163;26;19995;-85
2024/04/16 11:41:38;;;;;;;0.77;0.50;;;12.40;99.70;;;;;;5457204;26;20006;-84
2024/04/16 11:44:05;;;;;;;1.33;0.50;;;12.50;99.90;;;;;;5455718;26;20018;-85
2024/04/16 11:46:31;;;;;;;1.95;0.50;;;12.50;99.90;;;;;;5454305;26;19999;-84
2024/04/16 11:48:56;;;;;;;2.10;0.40;;;12.60;99.90;;;;;;5456606;26;19991;-83
2024/04/16 11:51:22;;;;;;;1.27;0.50;;;12.70;99.90;;;;;;5454670;26;19991;-84
2024/04/16 11:53:48;;;;;;;1.63;0.40;;;12.80;99.90;;;;;;5456886;26;20003;-84
2024/04/16 11:56:17;;;;;;;1.65;0.57;;;12.90;99.90;;;;;;5424487;26;19999;-83
2024/04/16 11:58:42;;;;;;;1.48;0.55;;;13.00;99.90;;;;;;5454930;26;20031;-84
2024/04/16 12:01:11;;;;;;;3.60;0.40;;;13.10;99.90;;;;;;5424759;26;19995;-83
2024/04/16 12:03:37;;;;;;;1.02;0.30;;;13.10;99.90;;;;;;5454273;26;20466;-83
2024/04/16 12:06:03;;;;;;;1.55;0.60;;;13.20;99.60;;;;;;5454496;26;20003;-83
2024/04/16 12:08:28;;;;;;;1.05;0.40;;;13.20;99.50;;;;;;5454529;26;19994;-83
2024/04/16 12:10:54;;;;;;;0.55;0.15;;;13.30;98.90;;;;;;5456632;26;20431;-84
2024/04/16 12:13:20;;;;;;;0.85;0.30;;;13.30;98.70;;;;;;5455067;26;20036;-82
2024/04/16 12:15:45;;;;;;;1.27;0.35;;;13.50;98.60;;;;;;5454981;26;19995;-83
2024/04/16 12:18:11;;;;;;;1.67;0.30;;;13.50;98.50;;;;;;5455073;26;19987;-83
2024/04/16 12:20:37;;;;;;;1.95;0.20;;;13.60;98.10;;;;;;5455047;26;20010;-82
2024/04/16 12:23:02;;;;;;;0.95;0.35;;;13.60;98.00;;;;;;5424865;26;20028;-82
2024/04/16 12:25:28;;;;;;;0.93;0.30;;;13.60;98.10;;;;;;5424389;26;20010;-82
2024/04/16 12:27:54;;;;;;;0.57;0.35;;;13.60;98.30;;;;;;5424783;26;19995;-82
2024/04/16 12:30:23;;;;;;;1.85;0.50;;;13.60;98.50;;;;;;5455094;26;20066;-83
2024/04/16 12:32:49;;;;;;;1.83;0.30;;;13.70;98.40;;;;;;5397629;26;20007;-83
2024/04/16 12:35:16;;;;;;;1.98;0.40;;;13.70;98.10;;;;;;5428624;26;19994;-83
2024/04/16 12:37:41;;;;;;;1.70;0.50;;;13.70;98.30;;;;;;5472673;26;19987;-83
2024/04/16 12:40:07;;;;;;;1.23;0.45;;;13.60;98.00;;;;;;5477314;26;19987;-86
2024/04/16 12:42:33;;;;;;;1.35;0.28;;;13.20;97.50;;;;;;5478425;26;19987;-83
2024/04/16 12:44:59;;;;;;;0.60;0.30;;;12.80;97.90;;;;;;5478251;26;20002;-84
2024/04/16 12:47:27;;;;;;;0.50;0.20;;;12.60;98.50;;;;;;5465143;26;20002;-82
2024/04/16 12:49:53;;;;;;;0.52;0.20;;;12.50;98.80;;;;;;5454699;26;19991;-83